Marion, OH

8:23 AM EST on March 03, 2015 (GMT -0500)
Marion Municipal | Change Station
CLOSE
Current Station
Airport
Location: Marion,
Elevation: 994 ft
Nearby Weather Stations
Active Advisory: Winter Weather Advisory

Elev 994 ft 40.62 °N, 83.06 °W | Updated 30 minutes ago

Overcast
Overcast
25 °F
Feels Like 18 °F
N
6
Wind Variable Wind from ESE

Today
High -- | Low -- °F
--% Chance of Precip.
Yesterday
High -- | Low -- °F
Precip. -- in
7:03 AM 6:25 PM
Waxing Gibbous, 96% visible
Pressure 30.18 in
Visibility 3.0 miles
Clouds Overcast 6500 ft
Windchill 18 °F
Dew Point 17 °F
Humidity 72%
Rainfall 0.00 in
Snow Depth Not available.
UV 0 out of 12
Pollen .50 out of 12
Air Quality Not available.
Flu Activity Not available.
METAR KMNN 031253Z AUTO 12005KT 3SM UP OVC065 M04/M08 A3013 RMK AO2 UPB30 SLP219 P0000 T10391083 TSNO

More Conditions Fewer Conditions

Pressure 30.18 in
Visibility 3.0 miles
Clouds Overcast 6500 ft
Windchill 18 °F
Dew Point 17 °F
Humidity 72%
Rainfall 0.00 in
Snow Depth Not available.
UV 0 out of 12
Pollen .50 out of 12
Air Quality Not available.
Flu Activity Not available.
METAR KMNN 031253Z AUTO 12005KT 3SM UP OVC065 M04/M08 A3013 RMK AO2 UPB30 SLP219 P0000 T10391083 TSNO

More Conditions Fewer Conditions

10-Day Weather Forecast

Almanac

Astronomy

Mar. 03, 2015 Rise Set
Actual Time
Civil Twilight
Nautical Twilight
Astronomical Twilight
Moon
Length of Visible Light
Length of Day
Tomorrow will be .
, % of the Moon is Illuminated

Today's Extremes

State Highs State Lows

Community

WunderPhotos

Upload Photos

1,802,100 photos uploaded!

WunderBlogs® & News

Nearby

Air Quality

  Air Quality AQ Index Pollutant
Not available.

Snow Depth

Station Depth Elevation

Earthquake Activity

City Distance Mag. Time & Date
Minimum magnitude displayed is 2.5.

Coastal Water Temperatures

Place Temperature

Nearby Weather Stations

Winter Weather Advisory
Statement as of 3:57 AM EST on March 03, 2015

... Winter Weather Advisory now in effect from 7 am this morning
to 1 PM EST this afternoon...

* ice accumulations... less than a tenth of an inch.

* Snow/sleet accumulations... an inch or less.

* Snow/ice beginning... snow will begin around daybreak and will
gradually transition to sleet and freezing rain late in the
morning and continue into early afternoon before changing to
rain.

* Snow/ice ending... rain is expected for most of the afternoon.

* Impacts... hazardous conditions are expected due to snow... sleet
and light ice accumulations. Untreated roads and sidewalks will
be slippery.

Precautionary/preparedness actions...

A Winter Weather Advisory is normally issued for a variety of
winter weather conditions such as light snow... blowing snow...
sleet... freezing rain and wind chills. While the weather will be
significant... the word advisory implies that severe winter
weather is not anticipated. Stay tuned to NOAA Weather Radio for
further details or updates.